createdAt,value
2022-10-10T00:01:14.277Z,4.38
2022-10-10T00:03:41.586Z,4.07
2022-10-10T00:06:08.897Z,5.57
2022-10-10T00:08:35.952Z,3.17
2022-10-10T00:11:03.128Z,3.08
2022-10-10T00:13:29.628Z,2.60
2022-10-10T00:15:56.075Z,4.22
2022-10-10T00:18:22.621Z,6.38
2022-10-10T00:20:51.485Z,4.38
2022-10-10T00:23:18.798Z,5.38
2022-10-10T00:25:45.606Z,2.58
2022-10-10T00:28:12.735Z,4.97
2022-10-10T00:30:39.676Z,3.83
2022-10-10T00:33:06.442Z,4.80
2022-10-10T00:35:33.082Z,2.72
2022-10-10T00:37:59.529Z,5.57
2022-10-10T00:40:26.846Z,7.43
2022-10-10T00:42:53.781Z,3.80
2022-10-10T00:45:39.393Z,4.03
2022-10-10T00:48:11.968Z,7.50
2022-10-10T00:50:59.160Z,3.35
2022-10-10T00:53:30.727Z,3.78
2022-10-10T00:55:57.300Z,4.40
2022-10-10T00:58:24.324Z,4.68
2022-10-10T01:00:52.102Z,8.27
2022-10-10T01:03:18.620Z,3.20
2022-10-10T01:05:47.459Z,5.95
2022-10-10T01:08:14.846Z,6.70
2022-10-10T01:11:06.430Z,2.72
2022-10-10T01:13:40.675Z,6.13
2022-10-10T01:16:10.499Z,6.07
2022-10-10T01:18:56.572Z,5.18
2022-10-10T01:21:37.406Z,5.72
2022-10-10T01:24:25.552Z,4.25
2022-10-10T01:27:04.073Z,8.75
2022-10-10T01:29:37.232Z,4.90
2022-10-10T01:32:11.917Z,6.68
2022-10-10T01:35:03.519Z,6.32
2022-10-10T01:38:00.417Z,6.28
2022-10-10T01:40:36.285Z,7.80
2022-10-10T01:43:06.144Z,10.15
2022-10-10T01:45:32.748Z,10.15
2022-10-10T01:48:03.462Z,7.13
2022-10-10T01:50:34.915Z,6.88
2022-10-10T01:53:14.468Z,7.95
2022-10-10T01:55:53.359Z,7.75
2022-10-10T01:58:55.007Z,13.27
2022-10-10T02:01:44.095Z,10.40
2022-10-10T02:04:16.913Z,5.18
2022-10-10T02:07:01.715Z,9.27
2022-10-10T02:09:34.896Z,7.97
2022-10-10T02:12:02.238Z,10.10
2022-10-10T02:14:34.115Z,4.38
2022-10-10T02:17:02.234Z,8.95
2022-10-10T02:19:30.409Z,6.20
2022-10-10T02:21:56.893Z,7.47
2022-10-10T02:24:24.977Z,7.18
2022-10-10T02:27:03.260Z,6.85
2022-10-10T02:29:34.980Z,7.53
2022-10-10T02:32:08.346Z,5.93
2022-10-10T02:34:39.133Z,7.00
2022-10-10T02:37:12.439Z,4.65
2022-10-10T02:39:48.303Z,5.63
2022-10-10T02:42:18.016Z,7.45
2022-10-10T02:44:46.250Z,4.65
2022-10-10T02:47:13.173Z,6.18
2022-10-10T02:49:39.912Z,8.40
2022-10-10T02:52:06.846Z,6.15
2022-10-10T02:54:33.310Z,5.88
2022-10-10T02:56:59.828Z,6.75
2022-10-10T02:59:26.297Z,9.82
2022-10-10T03:01:52.685Z,5.88
2022-10-10T03:04:19.134Z,7.88
2022-10-10T03:06:45.790Z,5.75
2022-10-10T03:09:12.286Z,10.98
2022-10-10T03:11:38.738Z,5.20
2022-10-10T03:14:05.451Z,7.72
2022-10-10T03:16:31.856Z,11.25
2022-10-10T03:18:58.417Z,7.30
2022-10-10T03:21:24.771Z,9.00
2022-10-10T03:23:51.151Z,5.68
2022-10-10T03:26:17.592Z,6.80
2022-10-10T03:28:44.726Z,11.43
2022-10-10T03:31:11.298Z,5.00
2022-10-10T03:33:37.773Z,8.93
2022-10-10T03:36:04.696Z,5.00
2022-10-10T03:38:31.112Z,8.25
2022-10-10T03:40:57.507Z,8.20
2022-10-10T03:43:23.933Z,5.78
2022-10-10T03:45:50.489Z,7.72
2022-10-10T03:48:17.013Z,6.20
2022-10-10T03:50:43.435Z,8.85
2022-10-10T03:53:10.695Z,6.30
2022-10-10T03:55:40.566Z,10.68
2022-10-10T03:58:07.182Z,4.88
2022-10-10T04:00:33.648Z,9.45
2022-10-10T04:03:00.266Z,7.10
2022-10-10T04:05:26.678Z,5.47
2022-10-10T04:07:53.069Z,4.07
2022-10-10T04:10:19.560Z,8.20
2022-10-10T04:12:46.024Z,7.95
2022-10-10T04:15:12.479Z,8.52
2022-10-10T04:17:38.919Z,8.60
2022-10-10T04:20:05.617Z,7.80
2022-10-10T04:22:32.017Z,12.23
2022-10-10T04:24:58.572Z,11.43
2022-10-10T04:27:25.016Z,7.28
2022-10-10T04:29:51.399Z,8.23
2022-10-10T04:32:17.793Z,10.70
2022-10-10T04:34:44.257Z,6.30
2022-10-10T04:37:10.713Z,8.38
2022-10-10T04:39:37.190Z,10.35
2022-10-10T04:42:03.654Z,10.10
2022-10-10T04:44:30.333Z,9.30
2022-10-10T04:46:56.745Z,8.00
2022-10-10T04:49:23.203Z,10.75
2022-10-10T04:51:49.594Z,11.45
2022-10-10T04:54:16.041Z,8.93
2022-10-10T04:56:42.543Z,5.47
2022-10-10T04:59:10.108Z,8.45
2022-10-10T05:01:36.669Z,8.18
2022-10-10T05:04:04.266Z,6.57
2022-10-10T05:06:30.770Z,9.02
2022-10-10T05:08:57.219Z,6.25
2022-10-10T05:11:23.609Z,6.40
2022-10-10T05:13:50.710Z,6.35
2022-10-10T05:16:17.245Z,8.23
2022-10-10T05:18:44.138Z,8.23
2022-10-10T05:21:11.936Z,6.85
2022-10-10T05:23:38.788Z,10.80
2022-10-10T05:26:05.182Z,6.03
2022-10-10T05:28:32.008Z,7.57
2022-10-10T05:30:58.467Z,7.97
2022-10-10T05:33:24.888Z,9.23
2022-10-10T05:35:51.256Z,8.18
2022-10-10T05:38:17.959Z,10.20
2022-10-10T05:40:44.502Z,9.45
2022-10-10T05:43:11.156Z,14.95
2022-10-10T05:45:37.587Z,8.10
2022-10-10T05:48:04.140Z,7.55
2022-10-10T05:50:32.778Z,11.88
2022-10-10T05:52:59.420Z,7.65
2022-10-10T05:55:26.300Z,12.88
2022-10-10T05:57:52.788Z,8.48
2022-10-10T06:00:19.564Z,10.65
2022-10-10T06:02:46.008Z,13.13
2022-10-10T06:05:12.438Z,7.70
2022-10-10T06:08:02.361Z,11.93
2022-10-10T06:10:25.247Z,8.00
2022-10-10T06:12:51.938Z,13.73
2022-10-10T06:15:18.562Z,12.18
2022-10-10T06:17:45.025Z,21.55
2022-10-10T06:20:11.442Z,27.20
2022-10-10T06:22:37.893Z,17.33
2022-10-10T06:25:09.542Z,16.23
2022-10-10T06:27:42.154Z,12.05
2022-10-10T06:30:08.980Z,13.60
2022-10-10T06:32:35.573Z,9.00
2022-10-10T06:35:02.218Z,12.35
2022-10-10T06:37:28.576Z,14.15
2022-10-10T06:39:54.967Z,9.07
2022-10-10T06:42:21.375Z,9.38
2022-10-10T06:44:47.760Z,10.52
2022-10-10T06:47:14.192Z,9.75
2022-10-10T06:49:40.630Z,14.63
2022-10-10T06:52:06.999Z,12.48
2022-10-10T06:54:33.481Z,13.52
2022-10-10T06:56:59.910Z,17.15
2022-10-10T06:59:26.292Z,14.05
2022-10-10T07:01:52.726Z,14.75
2022-10-10T07:04:19.374Z,12.02
2022-10-10T07:06:45.796Z,13.10
2022-10-10T07:09:12.273Z,10.02
2022-10-10T07:11:39.477Z,12.45
2022-10-10T07:14:05.930Z,12.48
2022-10-10T07:16:33.989Z,13.05
2022-10-10T07:19:00.384Z,10.32
2022-10-10T07:21:27.691Z,9.68
2022-10-10T07:23:54.839Z,11.60
2022-10-10T07:26:22.506Z,8.98
2022-10-10T07:28:49.540Z,12.00
2022-10-10T07:31:15.994Z,9.45
2022-10-10T07:33:49.889Z,13.45
2022-10-10T07:36:16.775Z,10.68
2022-10-10T07:38:43.164Z,10.55
2022-10-10T07:41:13.174Z,13.15
2022-10-10T07:43:39.802Z,12.05
2022-10-10T07:46:13.656Z,18.33
2022-10-10T07:48:40.660Z,25.00
2022-10-10T07:51:07.361Z,13.55
2022-10-10T07:53:33.801Z,12.07
2022-10-10T07:56:00.291Z,14.25
2022-10-10T07:58:26.852Z,11.10
2022-10-10T08:01:02.833Z,12.15
2022-10-10T08:03:29.248Z,12.45
2022-10-10T08:05:55.948Z,8.57
2022-10-10T08:08:22.519Z,7.93
2022-10-10T08:10:48.985Z,7.13
2022-10-10T08:13:15.388Z,7.05
2022-10-10T08:15:41.887Z,4.50
2022-10-10T08:18:08.414Z,6.88
2022-10-10T08:20:34.821Z,7.18
2022-10-10T08:23:01.287Z,9.63
2022-10-10T08:25:27.773Z,9.20
2022-10-10T08:27:54.233Z,6.22
2022-10-10T08:30:20.608Z,4.55
2022-10-10T08:32:47.003Z,7.88
2022-10-10T08:35:13.436Z,7.03
2022-10-10T08:37:39.851Z,10.82
2022-10-10T08:40:07.322Z,5.72
2022-10-10T08:42:43.700Z,5.43
2022-10-10T08:45:19.048Z,4.50
2022-10-10T08:47:50.078Z,6.95
2022-10-10T08:50:36.273Z,5.82
2022-10-10T08:53:13.439Z,8.65
2022-10-10T08:55:43.485Z,5.20
2022-10-10T08:58:19.519Z,8.73
2022-10-10T09:00:54.949Z,5.60
2022-10-10T09:03:35.068Z,4.57
2022-10-10T09:06:45.189Z,3.95
2022-10-10T09:09:34.127Z,4.35
2022-10-10T09:12:23.142Z,5.20
2022-10-10T09:15:14.341Z,7.45
2022-10-10T09:17:48.136Z,4.13
2022-10-10T09:20:36.496Z,4.82
2022-10-10T09:23:19.620Z,5.03
2022-10-10T09:26:01.387Z,7.55
2022-10-10T09:28:46.962Z,6.90
2022-10-10T09:31:33.961Z,5.88
2022-10-10T09:34:12.315Z,4.00
2022-10-10T09:36:38.943Z,8.25
2022-10-10T09:39:33.055Z,7.47
2022-10-10T09:42:13.472Z,6.43
2022-10-10T09:44:41.590Z,5.13
2022-10-10T09:47:14.048Z,5.90
2022-10-10T09:49:41.612Z,6.97
2022-10-10T09:52:31.711Z,7.88
2022-10-10T09:55:18.653Z,6.63
2022-10-10T09:57:46.857Z,4.00
2022-10-10T10:00:19.102Z,7.57
2022-10-10T10:02:50.402Z,5.03
2022-10-10T10:05:26.260Z,4.75
2022-10-10T10:07:53.058Z,5.97
2022-10-10T10:10:24.411Z,7.88
2022-10-10T10:12:52.064Z,6.95
2022-10-10T10:15:20.331Z,4.97
2022-10-10T10:17:46.969Z,6.00
2022-10-10T10:20:28.711Z,4.50
2022-10-10T10:22:55.432Z,3.95
2022-10-10T10:25:33.545Z,6.55
2022-10-10T10:28:12.107Z,7.13
2022-10-10T10:30:40.386Z,2.90
2022-10-10T10:33:35.783Z,5.07
2022-10-10T10:36:12.192Z,6.95
2022-10-10T10:39:09.224Z,4.38
2022-10-10T10:41:45.776Z,6.85
2022-10-10T10:44:33.052Z,3.33
2022-10-10T10:47:20.746Z,5.18
2022-10-10T10:50:08.410Z,6.57
2022-10-10T10:52:49.899Z,5.60
2022-10-10T10:55:41.627Z,6.15
2022-10-10T11:01:56.798Z,5.13
2022-10-10T11:05:22.472Z,5.53
2022-10-10T11:07:26.411Z,5.80
2022-10-10T11:10:01.598Z,6.60
2022-10-10T11:12:40.177Z,4.95
2022-10-10T11:16:01.458Z,6.47
2022-10-10T11:18:43.314Z,5.32
2022-10-10T11:21:34.078Z,5.65
2022-10-10T11:24:11.950Z,6.40
2022-10-10T11:26:44.148Z,4.82
2022-10-10T11:29:30.560Z,4.88
2022-10-10T11:32:16.828Z,4.63
2022-10-10T11:35:15.213Z,7.13
2022-10-10T11:37:46.535Z,8.95
2022-10-10T11:40:53.631Z,5.60
2022-10-10T11:43:34.978Z,9.23
2022-10-10T11:46:11.372Z,6.15
2022-10-10T11:49:02.962Z,14.30
2022-10-10T11:51:44.010Z,8.43
2022-10-10T11:54:24.059Z,4.78
2022-10-10T11:56:53.640Z,6.43
2022-10-10T11:59:28.854Z,8.23
2022-10-10T12:04:35.609Z,10.43
2022-10-10T12:07:19.625Z,3.95
2022-10-10T12:09:54.407Z,4.60
2022-10-10T12:12:33.125Z,15.00
2022-10-10T12:15:03.939Z,11.77
2022-10-10T12:17:36.038Z,6.43
2022-10-10T12:20:14.597Z,5.60
2022-10-10T12:22:41.899Z,4.50
2022-10-10T12:25:11.463Z,4.80
2022-10-10T12:28:03.440Z,8.13
2022-10-10T12:30:30.210Z,9.90
2022-10-10T12:32:57.424Z,5.55
2022-10-10T12:35:40.011Z,6.90
2022-10-10T12:41:15.298Z,8.65
2022-10-10T12:43:49.938Z,4.80
2022-10-10T12:46:31.084Z,7.32
2022-10-10T12:49:13.653Z,8.52
2022-10-10T12:51:41.616Z,7.68
2022-10-10T12:54:08.765Z,13.70
2022-10-10T12:56:43.737Z,12.90
2022-10-10T12:59:22.555Z,14.57
2022-10-10T13:01:58.442Z,7.15
2022-10-10T13:04:26.251Z,10.02
2022-10-10T13:06:56.602Z,8.85
2022-10-10T13:09:34.895Z,12.43
2022-10-10T13:12:04.937Z,12.55
2022-10-10T13:14:45.327Z,8.60
2022-10-10T13:17:27.410Z,7.28
2022-10-10T13:19:55.443Z,14.00
2022-10-10T13:22:22.518Z,10.32
2022-10-10T13:24:50.399Z,10.10
2022-10-10T13:27:31.095Z,9.20
2022-10-10T13:29:57.659Z,12.52
2022-10-10T13:32:27.405Z,11.70
2022-10-10T13:34:59.753Z,7.80
2022-10-10T13:37:27.075Z,8.68
2022-10-10T13:39:54.524Z,12.90
2022-10-10T13:42:36.467Z,7.75
2022-10-10T13:45:29.299Z,8.82
2022-10-10T13:48:11.876Z,7.97
2022-10-10T13:50:44.081Z,13.00
2022-10-10T13:53:29.177Z,6.45
2022-10-10T13:56:20.886Z,11.82
2022-10-10T13:58:52.049Z,12.82
2022-10-10T14:01:25.705Z,15.35
2022-10-10T14:03:55.665Z,16.85
2022-10-10T14:06:25.661Z,12.18
2022-10-10T14:08:54.634Z,13.77
2022-10-10T14:11:24.051Z,15.13
2022-10-10T14:13:55.040Z,12.90
2022-10-10T14:16:24.561Z,10.20
2022-10-10T14:18:51.634Z,14.43
2022-10-10T14:21:18.253Z,12.85
2022-10-10T14:23:44.814Z,7.75
2022-10-10T14:26:15.841Z,16.20
2022-10-10T14:28:43.041Z,20.67
2022-10-10T14:31:09.795Z,13.35
2022-10-10T14:33:36.547Z,13.45
2022-10-10T14:36:04.249Z,14.43
2022-10-10T14:38:30.685Z,14.73
2022-10-10T14:40:57.152Z,12.48
2022-10-10T14:43:24.455Z,13.23
2022-10-10T14:45:52.513Z,7.13
2022-10-10T14:48:19.570Z,11.93
2022-10-10T14:50:47.903Z,13.77
2022-10-10T14:53:16.973Z,11.10
2022-10-10T14:55:44.127Z,10.52
2022-10-10T14:58:19.760Z,10.60
2022-10-10T15:00:47.030Z,15.23
2022-10-10T15:03:14.083Z,14.77
2022-10-10T15:05:41.183Z,16.27
2022-10-10T15:08:08.229Z,9.93
2022-10-10T15:10:35.412Z,15.07
2022-10-10T15:13:03.497Z,8.68
2022-10-10T15:15:30.400Z,12.65
2022-10-10T15:18:00.714Z,16.25
2022-10-10T15:20:33.314Z,23.13
2022-10-10T15:23:02.491Z,12.68
2022-10-10T15:25:33.392Z,14.65
2022-10-10T15:28:00.793Z,13.43
2022-10-10T15:30:27.244Z,11.45
2022-10-10T15:32:53.655Z,16.73
2022-10-10T15:35:22.467Z,19.02
2022-10-10T15:37:49.180Z,15.90
2022-10-10T15:40:19.789Z,12.25
2022-10-10T15:42:47.297Z,8.70
2022-10-10T15:45:22.622Z,11.25
2022-10-10T15:50:26.981Z,16.00
2022-10-10T15:52:53.580Z,14.93
2022-10-10T15:55:20.015Z,8.25
2022-10-10T15:57:46.396Z,14.40
2022-10-10T16:00:13.547Z,16.42
2022-10-10T16:02:39.963Z,15.93
2022-10-10T16:05:08.398Z,10.93
2022-10-10T16:07:42.118Z,11.68
2022-10-10T16:10:13.325Z,17.60
2022-10-10T16:12:39.723Z,18.17
2022-10-10T16:15:07.411Z,14.95
2022-10-10T16:17:34.091Z,17.70
2022-10-10T16:20:00.506Z,14.18
2022-10-10T16:22:26.904Z,13.07
2022-10-10T16:25:17.295Z,30.60
2022-10-10T16:27:40.067Z,15.10
2022-10-10T16:30:07.795Z,14.55
2022-10-10T16:32:39.313Z,13.00
2022-10-10T16:35:08.605Z,16.33
2022-10-10T16:37:35.173Z,12.60
2022-10-10T16:40:01.645Z,16.35
2022-10-10T16:42:28.133Z,13.35
2022-10-10T16:44:54.578Z,14.30
2022-10-10T16:47:21.098Z,14.05
2022-10-10T16:49:47.477Z,17.80
2022-10-10T16:52:13.900Z,10.38
2022-10-10T16:54:40.316Z,16.20
2022-10-10T16:57:06.743Z,10.80
2022-10-10T16:59:34.732Z,17.88
2022-10-10T17:02:01.132Z,16.02
2022-10-10T17:04:27.518Z,16.55
2022-10-10T17:06:53.927Z,8.90
2022-10-10T17:09:20.558Z,12.55
2022-10-10T17:11:51.051Z,13.63
2022-10-10T17:14:18.190Z,17.15
2022-10-10T17:17:11.626Z,10.88
2022-10-10T17:19:32.087Z,20.20
2022-10-10T17:21:59.573Z,14.27
2022-10-10T17:24:26.043Z,10.68
2022-10-10T17:26:52.968Z,11.43
2022-10-10T17:29:19.513Z,14.00
2022-10-10T17:31:45.941Z,16.67
2022-10-10T17:34:12.511Z,23.02
2022-10-10T17:36:39.049Z,20.23
2022-10-10T17:39:07.427Z,10.82
2022-10-10T17:41:34.133Z,21.08
2022-10-10T17:44:00.797Z,8.80
2022-10-10T17:46:36.558Z,11.00
2022-10-10T17:49:05.656Z,6.65
2022-10-10T17:51:32.635Z,14.48
2022-10-10T17:53:59.638Z,10.93
2022-10-10T17:56:26.073Z,14.00
2022-10-10T17:58:52.800Z,10.02
2022-10-10T18:01:20.355Z,18.80
2022-10-10T18:03:47.924Z,10.68
2022-10-10T18:06:17.003Z,14.18
2022-10-10T18:08:43.389Z,9.63
2022-10-10T18:11:17.952Z,11.55
2022-10-10T18:13:44.657Z,21.80
2022-10-10T18:16:13.459Z,13.80
2022-10-10T18:18:41.125Z,15.10
2022-10-10T18:21:09.813Z,19.90
2022-10-10T18:23:36.778Z,15.00
2022-10-10T18:26:22.012Z,15.75
2022-10-10T18:28:49.157Z,13.50
2022-10-10T18:31:21.386Z,11.80
2022-10-10T18:33:48.014Z,15.70
2022-10-10T18:36:17.165Z,12.65
2022-10-10T18:38:43.616Z,10.65
2022-10-10T18:41:13.292Z,12.75
2022-10-10T18:43:40.749Z,23.42
2022-10-10T18:46:10.016Z,14.10
2022-10-10T18:48:36.696Z,22.48
2022-10-10T18:51:05.991Z,13.93
2022-10-10T18:53:41.808Z,11.80
2022-10-10T18:56:09.406Z,13.07
2022-10-10T18:58:36.792Z,18.40
2022-10-10T19:01:12.095Z,11.63
2022-10-10T19:03:40.179Z,14.35
2022-10-10T19:06:09.165Z,11.25
2022-10-10T19:08:36.185Z,13.23
2022-10-10T19:11:04.001Z,11.98
2022-10-10T19:13:31.114Z,21.88
2022-10-10T19:16:06.889Z,17.63
2022-10-10T19:18:34.384Z,22.17
2022-10-10T19:21:03.243Z,15.48
2022-10-10T19:23:30.562Z,20.63
2022-10-10T19:26:01.736Z,12.07
2022-10-10T19:28:28.179Z,17.38
2022-10-10T19:30:54.647Z,18.08
2022-10-10T19:33:21.407Z,13.98
2022-10-10T19:35:51.264Z,24.25
2022-10-10T19:38:19.340Z,15.88
2022-10-10T19:40:47.361Z,13.80
2022-10-10T19:43:14.973Z,15.32
2022-10-10T19:45:51.323Z,16.88
2022-10-10T19:48:19.881Z,16.10
2022-10-10T19:50:47.398Z,16.75
2022-10-10T19:53:19.770Z,9.48
2022-10-10T19:55:57.643Z,12.50
2022-10-10T19:58:24.124Z,14.95
2022-10-10T20:00:50.682Z,13.02
2022-10-10T20:03:19.234Z,22.75
2022-10-10T20:05:45.890Z,13.80
2022-10-10T20:08:12.661Z,18.90
2022-10-10T20:10:40.805Z,12.63
2022-10-10T20:13:11.426Z,13.95
2022-10-10T20:15:42.227Z,11.55
2022-10-10T20:18:08.673Z,12.68
2022-10-10T20:20:35.650Z,15.52
2022-10-10T20:23:02.125Z,12.73
2022-10-10T20:25:28.608Z,14.48
2022-10-10T20:27:54.988Z,20.10
2022-10-10T20:30:21.426Z,11.20
2022-10-10T20:32:47.887Z,11.43
2022-10-10T20:35:14.528Z,12.77
2022-10-10T20:37:40.983Z,15.15
2022-10-10T20:40:08.055Z,22.67
2022-10-10T20:42:34.457Z,16.25
2022-10-10T20:45:00.882Z,15.07
2022-10-10T20:47:27.280Z,11.13
2022-10-10T20:49:53.677Z,12.52
2022-10-10T20:52:20.054Z,13.77
2022-10-10T20:54:46.445Z,19.88
2022-10-10T20:57:12.875Z,19.20
2022-10-10T20:59:39.593Z,16.73
2022-10-10T21:02:06.211Z,10.45
2022-10-10T21:04:32.732Z,11.07
2022-10-10T21:06:59.108Z,14.55
2022-10-10T21:09:25.478Z,8.23
2022-10-10T21:11:52.036Z,13.52
2022-10-10T21:14:19.098Z,13.13
2022-10-10T21:16:45.855Z,11.32
2022-10-10T21:19:12.883Z,20.13
2022-10-10T21:21:39.607Z,11.65
2022-10-10T21:24:07.931Z,14.70
2022-10-10T21:26:34.637Z,17.42
2022-10-10T21:29:01.207Z,14.35
2022-10-10T21:31:36.043Z,15.20
2022-10-10T21:34:04.680Z,19.13
2022-10-10T21:36:31.980Z,13.60
2022-10-10T21:38:59.478Z,14.30
2022-10-10T21:41:26.340Z,17.83
2022-10-10T21:43:55.859Z,19.35
2022-10-10T21:46:27.700Z,18.33
2022-10-10T21:48:55.459Z,18.45
2022-10-10T21:51:21.926Z,19.13
2022-10-10T21:53:48.469Z,15.88
2022-10-10T21:56:15.394Z,14.90
2022-10-10T21:58:43.419Z,18.92
2022-10-10T22:01:15.902Z,13.43
2022-10-10T22:03:44.165Z,18.00
2022-10-10T22:06:13.389Z,15.43
2022-10-10T22:08:41.008Z,15.65
2022-10-10T22:11:19.911Z,17.08
2022-10-10T22:13:47.098Z,15.30
2022-10-10T22:16:13.707Z,11.95
2022-10-10T22:18:40.699Z,13.27
2022-10-10T22:21:10.478Z,10.82
2022-10-10T22:23:37.909Z,16.58
2022-10-10T22:26:08.735Z,12.57
2022-10-10T22:28:35.589Z,14.73
2022-10-10T22:31:08.222Z,15.48
2022-10-10T22:33:34.850Z,17.83
2022-10-10T22:36:01.650Z,15.23
2022-10-10T22:38:28.682Z,18.20
2022-10-10T22:40:55.154Z,18.70
2022-10-10T22:43:26.053Z,13.85
2022-10-10T22:45:53.348Z,9.63
2022-10-10T22:48:19.883Z,18.02
2022-10-10T22:50:46.305Z,12.25
2022-10-10T22:53:12.655Z,11.95
2022-10-10T22:55:39.076Z,17.10
2022-10-10T22:58:05.480Z,10.82
2022-10-10T23:00:31.962Z,8.77
2022-10-10T23:02:58.564Z,10.45
2022-10-10T23:05:26.146Z,10.88
2022-10-10T23:07:52.609Z,8.93
2022-10-10T23:10:19.088Z,13.38
2022-10-10T23:12:45.541Z,19.83
2022-10-10T23:15:11.908Z,15.73
2022-10-10T23:17:38.370Z,16.23
2022-10-10T23:20:05.411Z,7.40
2022-10-10T23:22:31.839Z,7.90
2022-10-10T23:24:58.319Z,14.45
2022-10-10T23:27:24.721Z,13.38
2022-10-10T23:29:51.108Z,16.58
2022-10-10T23:32:17.492Z,15.90
2022-10-10T23:34:43.856Z,11.45
2022-10-10T23:37:10.267Z,12.48
2022-10-10T23:39:36.732Z,7.70
2022-10-10T23:42:03.133Z,14.25
2022-10-10T23:44:29.622Z,11.13
2022-10-10T23:46:56.014Z,11.80
2022-10-10T23:49:22.495Z,5.82
2022-10-10T23:51:48.923Z,15.35
2022-10-10T23:54:15.325Z,9.15
2022-10-10T23:56:41.700Z,10.98
2022-10-10T23:59:08.117Z,6.38
